Terminal Aerodrome Forecast
Issued by NWS

Home | Current Version | Previous Version | Text Only | Print | Product List | Glossary On
Versions: 1 2 3 4 5 6 7 8 9 10 11 12 13 14 15 16
000
FTUS43 KJKL 280500
TAFSME
TAF
KSME 280530Z 2806/2906 16004KT P6SM SCT250
     FM281600 22012G18KT P6SM FEW050 BKN250
     FM282200 25008KT 6SM -SHRA VCTS SCT030CB OVC050
     FM290000 29005KT P6SM -SHRA SCT025 OVC050=

USA.gov is the U.S. government's official web portal to all federal, state and local government web resources and services.